Terminal Aerodrome Forecast
Issued by NWS North Platte, NE

Home | Current Version | Previous Version | Text Only | Print | Product List | Glossary Off
Versions: 1 2 3 4 5 6 7 8 9 10 11 12 13 14 15 16 17 18 19 20 21

622
FTUS43 KLBF 211720
TAFVTN
TAF
KVTN 211720Z 2118/2218 09009KT P6SM OVC008
     FM220300 11011KT P6SM OVC035
     FM220500 12012KT P6SM -SN OVC045
     FM220600 13013G19KT P6SM -SNPL OVC030
     FM220800 13014G23KT P6SM -SNPL OVC015
     FM220900 13015G23KT 6SM -SN OVC025
     FM221100 14013G19KT P6SM VCSH OVC035
     FM221300 15014G22KT P6SM OVC025
     FM221600 17018G27KT P6SM BKN035=

USA.gov is the U.S. government's official web portal to all federal, state and local government web resources and services.